sensor_id;sensor_type;location;lat;lon;timestamp;P1;durP1;ratioP1;P2;durP2;ratioP2
45354;SDS011;31091;48.758;9.150;2022-11-15T00:00:12;10.60;;;4.88;;
45354;SDS011;31091;48.758;9.150;2022-11-15T00:02:37;9.60;;;4.10;;
45354;SDS011;31091;48.758;9.150;2022-11-15T00:05:03;9.30;;;3.58;;
45354;SDS011;31091;48.758;9.150;2022-11-15T00:07:28;8.00;;;3.88;;
45354;SDS011;31091;48.758;9.150;2022-11-15T00:09:53;13.00;;;5.45;;
45354;SDS011;31091;48.758;9.150;2022-11-15T00:12:18;7.87;;;4.23;;
45354;SDS011;31091;48.758;9.150;2022-11-15T00:14:44;6.83;;;4.27;;
45354;SDS011;31091;48.758;9.150;2022-11-15T00:17:09;9.63;;;4.33;;
45354;SDS011;31091;48.758;9.150;2022-11-15T00:19:34;9.95;;;4.78;;
45354;SDS011;31091;48.758;9.150;2022-11-15T00:21:59;9.90;;;5.00;;
45354;SDS011;31091;48.758;9.150;2022-11-15T00:24:25;7.63;;;4.50;;
45354;SDS011;31091;48.758;9.150;2022-11-15T00:26:50;7.33;;;3.67;;
45354;SDS011;31091;48.758;9.150;2022-11-15T00:29:15;7.53;;;3.88;;
45354;SDS011;31091;48.758;9.150;2022-11-15T00:31:40;9.70;;;4.40;;
45354;SDS011;31091;48.758;9.150;2022-11-15T00:34:06;6.80;;;3.70;;
45354;SDS011;31091;48.758;9.150;2022-11-15T00:36:32;7.30;;;3.45;;
45354;SDS011;31091;48.758;9.150;2022-11-15T00:38:58;10.85;;;4.28;;
45354;SDS011;31091;48.758;9.150;2022-11-15T00:41:23;6.93;;;4.18;;
45354;SDS011;31091;48.758;9.150;2022-11-15T00:43:48;7.93;;;4.57;;
45354;SDS011;31091;48.758;9.150;2022-11-15T00:46:13;8.90;;;4.10;;
45354;SDS011;31091;48.758;9.150;2022-11-15T00:48:38;10.10;;;3.95;;
45354;SDS011;31091;48.758;9.150;2022-11-15T00:51:04;9.73;;;3.97;;
45354;SDS011;31091;48.758;9.150;2022-11-15T00:53:29;8.13;;;4.30;;
45354;SDS011;31091;48.758;9.150;2022-11-15T00:55:54;8.52;;;4.35;;
45354;SDS011;31091;48.758;9.150;2022-11-15T00:58:19;6.75;;;3.65;;
45354;SDS011;31091;48.758;9.150;2022-11-15T01:00:45;7.13;;;4.13;;
45354;SDS011;31091;48.758;9.150;2022-11-15T01:03:10;8.00;;;4.27;;
45354;SDS011;31091;48.758;9.150;2022-11-15T01:05:36;8.43;;;3.70;;
45354;SDS011;31091;48.758;9.150;2022-11-15T01:08:02;8.38;;;4.43;;
45354;SDS011;31091;48.758;9.150;2022-11-15T01:10:27;8.95;;;4.07;;
45354;SDS011;31091;48.758;9.150;2022-11-15T01:12:52;6.63;;;3.92;;
45354;SDS011;31091;48.758;9.150;2022-11-15T01:15:17;6.90;;;3.57;;
45354;SDS011;31091;48.758;9.150;2022-11-15T01:17:43;5.15;;;3.38;;
45354;SDS011;31091;48.758;9.150;2022-11-15T01:20:08;8.93;;;3.40;;
45354;SDS011;31091;48.758;9.150;2022-11-15T01:22:33;6.28;;;3.60;;
45354;SDS011;31091;48.758;9.150;2022-11-15T01:24:59;6.77;;;3.70;;
45354;SDS011;31091;48.758;9.150;2022-11-15T01:27:24;8.43;;;3.77;;
45354;SDS011;31091;48.758;9.150;2022-11-15T01:29:49;8.45;;;4.18;;
45354;SDS011;31091;48.758;9.150;2022-11-15T01:32:14;6.90;;;3.87;;
45354;SDS011;31091;48.758;9.150;2022-11-15T01:34:40;4.83;;;3.37;;
45354;SDS011;31091;48.758;9.150;2022-11-15T01:37:05;6.70;;;3.70;;
45354;SDS011;31091;48.758;9.150;2022-11-15T01:39:30;9.07;;;5.15;;
45354;SDS011;31091;48.758;9.150;2022-11-15T01:41:55;8.47;;;4.10;;
45354;SDS011;31091;48.758;9.150;2022-11-15T01:46:59;7.25;;;4.10;;
45354;SDS011;31091;48.758;9.150;2022-11-15T01:49:25;11.43;;;4.93;;
45354;SDS011;31091;48.758;9.150;2022-11-15T01:51:51;7.82;;;4.05;;
45354;SDS011;31091;48.758;9.150;2022-11-15T01:54:18;9.10;;;3.75;;
45354;SDS011;31091;48.758;9.150;2022-11-15T01:56:46;7.90;;;4.88;;
45354;SDS011;31091;48.758;9.150;2022-11-15T01:59:13;11.43;;;3.60;;
45354;SDS011;31091;48.758;9.150;2022-11-15T02:01:39;5.50;;;3.55;;
45354;SDS011;31091;48.758;9.150;2022-11-15T02:06:39;7.00;;;3.90;;
45354;SDS011;31091;48.758;9.150;2022-11-15T02:09:05;7.50;;;3.45;;
45354;SDS011;31091;48.758;9.150;2022-11-15T02:11:30;7.70;;;4.05;;
45354;SDS011;31091;48.758;9.150;2022-11-15T02:13:59;9.10;;;3.60;;
45354;SDS011;31091;48.758;9.150;2022-11-15T02:24:35;8.38;;;3.63;;
45354;SDS011;31091;48.758;9.150;2022-11-15T02:32:09;6.50;;;3.20;;
45354;SDS011;31091;48.758;9.150;2022-11-15T02:34:51;6.13;;;3.45;;
45354;SDS011;31091;48.758;9.150;2022-11-15T02:39:51;6.22;;;3.15;;
45354;SDS011;31091;48.758;9.150;2022-11-15T02:42:23;4.65;;;2.85;;
45354;SDS011;31091;48.758;9.150;2022-11-15T02:45:08;6.40;;;2.90;;
45354;SDS011;31091;48.758;9.150;2022-11-15T02:47:38;9.02;;;3.50;;
45354;SDS011;31091;48.758;9.150;2022-11-15T02:50:07;5.68;;;3.50;;
45354;SDS011;31091;48.758;9.150;2022-11-15T02:52:33;5.10;;;3.13;;
45354;SDS011;31091;48.758;9.150;2022-11-15T02:54:58;7.10;;;3.33;;
45354;SDS011;31091;48.758;9.150;2022-11-15T02:57:38;8.63;;;3.30;;
45354;SDS011;31091;48.758;9.150;2022-11-15T03:00:05;5.10;;;3.05;;
45354;SDS011;31091;48.758;9.150;2022-11-15T03:02:49;5.38;;;3.10;;
45354;SDS011;31091;48.758;9.150;2022-11-15T03:11:17;6.90;;;3.30;;
45354;SDS011;31091;48.758;9.150;2022-11-15T03:15:37;5.37;;;3.00;;
45354;SDS011;31091;48.758;9.150;2022-11-15T03:18:45;5.57;;;2.75;;
45354;SDS011;31091;48.758;9.150;2022-11-15T03:20:51;4.47;;;3.00;;
45354;SDS011;31091;48.758;9.150;2022-11-15T03:23:17;15.43;;;4.07;;
45354;SDS011;31091;48.758;9.150;2022-11-15T03:25:43;5.30;;;2.83;;
45354;SDS011;31091;48.758;9.150;2022-11-15T03:28:11;12.05;;;3.75;;
45354;SDS011;31091;48.758;9.150;2022-11-15T03:30:37;7.78;;;3.67;;
45354;SDS011;31091;48.758;9.150;2022-11-15T03:33:04;8.95;;;3.40;;
45354;SDS011;31091;48.758;9.150;2022-11-15T03:35:37;6.18;;;3.08;;
45354;SDS011;31091;48.758;9.150;2022-11-15T03:40:42;5.57;;;3.30;;
45354;SDS011;31091;48.758;9.150;2022-11-15T03:43:24;5.85;;;3.42;;
45354;SDS011;31091;48.758;9.150;2022-11-15T03:46:06;5.82;;;2.92;;
45354;SDS011;31091;48.758;9.150;2022-11-15T03:48:40;5.70;;;3.25;;
45354;SDS011;31091;48.758;9.150;2022-11-15T03:51:06;5.55;;;3.03;;
45354;SDS011;31091;48.758;9.150;2022-11-15T03:53:32;6.78;;;3.63;;
45354;SDS011;31091;48.758;9.150;2022-11-15T03:55:57;6.38;;;3.17;;
45354;SDS011;31091;48.758;9.150;2022-11-15T03:58:23;5.88;;;3.22;;
45354;SDS011;31091;48.758;9.150;2022-11-15T04:00:48;4.97;;;3.03;;
45354;SDS011;31091;48.758;9.150;2022-11-15T04:03:13;6.73;;;2.87;;
45354;SDS011;31091;48.758;9.150;2022-11-15T04:05:38;10.02;;;3.53;;
45354;SDS011;31091;48.758;9.150;2022-11-15T04:08:04;7.90;;;3.83;;
45354;SDS011;31091;48.758;9.150;2022-11-15T04:10:29;4.63;;;2.92;;
45354;SDS011;31091;48.758;9.150;2022-11-15T04:12:54;5.03;;;3.27;;
45354;SDS011;31091;48.758;9.150;2022-11-15T04:15:21;6.17;;;2.87;;
45354;SDS011;31091;48.758;9.150;2022-11-15T04:17:47;7.30;;;3.60;;
45354;SDS011;31091;48.758;9.150;2022-11-15T04:20:19;7.45;;;3.67;;
45354;SDS011;31091;48.758;9.150;2022-11-15T04:23:08;7.43;;;3.72;;
45354;SDS011;31091;48.758;9.150;2022-11-15T04:25:52;4.70;;;2.90;;
45354;SDS011;31091;48.758;9.150;2022-11-15T04:28:18;5.80;;;3.08;;
45354;SDS011;31091;48.758;9.150;2022-11-15T04:30:43;5.40;;;3.22;;
45354;SDS011;31091;48.758;9.150;2022-11-15T04:33:09;5.60;;;2.97;;
45354;SDS011;31091;48.758;9.150;2022-11-15T04:35:34;6.72;;;2.92;;
45354;SDS011;31091;48.758;9.150;2022-11-15T04:37:59;7.57;;;4.13;;
45354;SDS011;31091;48.758;9.150;2022-11-15T04:40:25;5.60;;;2.65;;
45354;SDS011;31091;48.758;9.150;2022-11-15T04:42:50;6.60;;;3.88;;
45354;SDS011;31091;48.758;9.150;2022-11-15T04:45:15;4.45;;;3.25;;
45354;SDS011;31091;48.758;9.150;2022-11-15T04:47:43;5.97;;;3.47;;
45354;SDS011;31091;48.758;9.150;2022-11-15T04:50:08;4.95;;;3.17;;
45354;SDS011;31091;48.758;9.150;2022-11-15T04:52:33;7.03;;;2.95;;
45354;SDS011;31091;48.758;9.150;2022-11-15T04:54:58;5.37;;;3.13;;
45354;SDS011;31091;48.758;9.150;2022-11-15T04:57:23;9.00;;;4.50;;
45354;SDS011;31091;48.758;9.150;2022-11-15T04:59:49;7.80;;;3.83;;
45354;SDS011;31091;48.758;9.150;2022-11-15T05:02:14;6.13;;;3.40;;
45354;SDS011;31091;48.758;9.150;2022-11-15T05:04:39;6.77;;;3.40;;
45354;SDS011;31091;48.758;9.150;2022-11-15T05:07:05;6.03;;;3.38;;
45354;SDS011;31091;48.758;9.150;2022-11-15T05:09:30;6.55;;;3.05;;
45354;SDS011;31091;48.758;9.150;2022-11-15T05:11:55;7.77;;;3.13;;
45354;SDS011;31091;48.758;9.150;2022-11-15T05:14:20;5.70;;;3.30;;
45354;SDS011;31091;48.758;9.150;2022-11-15T05:16:45;7.17;;;3.70;;
45354;SDS011;31091;48.758;9.150;2022-11-15T05:19:11;8.73;;;3.60;;
45354;SDS011;31091;48.758;9.150;2022-11-15T05:21:36;9.03;;;3.40;;
45354;SDS011;31091;48.758;9.150;2022-11-15T05:24:02;10.57;;;4.15;;
45354;SDS011;31091;48.758;9.150;2022-11-15T05:26:27;6.35;;;3.83;;
45354;SDS011;31091;48.758;9.150;2022-11-15T05:28:53;6.25;;;3.47;;
45354;SDS011;31091;48.758;9.150;2022-11-15T05:31:19;7.28;;;3.55;;
45354;SDS011;31091;48.758;9.150;2022-11-15T05:33:44;6.57;;;3.47;;
45354;SDS011;31091;48.758;9.150;2022-11-15T05:36:12;6.93;;;3.63;;
45354;SDS011;31091;48.758;9.150;2022-11-15T05:38:38;8.10;;;3.80;;
45354;SDS011;31091;48.758;9.150;2022-11-15T05:41:03;5.88;;;4.15;;
45354;SDS011;31091;48.758;9.150;2022-11-15T05:43:29;6.10;;;3.38;;
45354;SDS011;31091;48.758;9.150;2022-11-15T05:45:56;6.97;;;3.65;;
45354;SDS011;31091;48.758;9.150;2022-11-15T05:48:22;6.35;;;3.80;;
45354;SDS011;31091;48.758;9.150;2022-11-15T05:50:47;6.30;;;2.88;;
45354;SDS011;31091;48.758;9.150;2022-11-15T05:53:13;6.50;;;3.33;;
45354;SDS011;31091;48.758;9.150;2022-11-15T05:55:39;5.53;;;3.25;;
45354;SDS011;31091;48.758;9.150;2022-11-15T05:58:04;6.75;;;3.67;;
45354;SDS011;31091;48.758;9.150;2022-11-15T06:00:30;10.32;;;3.40;;
45354;SDS011;31091;48.758;9.150;2022-11-15T06:02:55;7.13;;;3.47;;
45354;SDS011;31091;48.758;9.150;2022-11-15T06:05:20;8.73;;;3.80;;
45354;SDS011;31091;48.758;9.150;2022-11-15T06:07:45;8.30;;;3.53;;
45354;SDS011;31091;48.758;9.150;2022-11-15T06:10:11;6.30;;;3.97;;
45354;SDS011;31091;48.758;9.150;2022-11-15T06:12:36;6.83;;;3.20;;
45354;SDS011;31091;48.758;9.150;2022-11-15T06:15:01;8.57;;;3.58;;
45354;SDS011;31091;48.758;9.150;2022-11-15T06:17:26;6.20;;;3.67;;
45354;SDS011;31091;48.758;9.150;2022-11-15T06:19:52;7.53;;;3.47;;
45354;SDS011;31091;48.758;9.150;2022-11-15T06:22:17;9.63;;;3.67;;
45354;SDS011;31091;48.758;9.150;2022-11-15T06:24:42;9.88;;;4.72;;
45354;SDS011;31091;48.758;9.150;2022-11-15T06:27:08;5.78;;;3.60;;
45354;SDS011;31091;48.758;9.150;2022-11-15T06:29:34;8.25;;;4.38;;
45354;SDS011;31091;48.758;9.150;2022-11-15T06:31:59;8.00;;;4.50;;
45354;SDS011;31091;48.758;9.150;2022-11-15T06:34:24;6.40;;;4.15;;
45354;SDS011;31091;48.758;9.150;2022-11-15T06:36:49;7.65;;;4.20;;
45354;SDS011;31091;48.758;9.150;2022-11-15T06:39:15;6.57;;;3.97;;
45354;SDS011;31091;48.758;9.150;2022-11-15T06:41:40;9.27;;;4.63;;
45354;SDS011;31091;48.758;9.150;2022-11-15T06:44:05;7.97;;;3.60;;
45354;SDS011;31091;48.758;9.150;2022-11-15T06:46:30;6.47;;;3.80;;
45354;SDS011;31091;48.758;9.150;2022-11-15T06:48:56;7.13;;;4.03;;
45354;SDS011;31091;48.758;9.150;2022-11-15T06:51:21;9.68;;;4.55;;
45354;SDS011;31091;48.758;9.150;2022-11-15T06:53:46;6.95;;;3.95;;
45354;SDS011;31091;48.758;9.150;2022-11-15T06:56:11;9.80;;;4.00;;
45354;SDS011;31091;48.758;9.150;2022-11-15T06:58:37;7.77;;;3.80;;
45354;SDS011;31091;48.758;9.150;2022-11-15T07:01:03;5.40;;;3.35;;
45354;SDS011;31091;48.758;9.150;2022-11-15T07:03:28;6.05;;;3.80;;
45354;SDS011;31091;48.758;9.150;2022-11-15T07:05:55;8.82;;;4.18;;
45354;SDS011;31091;48.758;9.150;2022-11-15T07:08:21;8.73;;;3.40;;
45354;SDS011;31091;48.758;9.150;2022-11-15T07:10:46;12.10;;;3.65;;
45354;SDS011;31091;48.758;9.150;2022-11-15T07:13:11;10.47;;;4.77;;
45354;SDS011;31091;48.758;9.150;2022-11-15T07:15:36;10.10;;;3.70;;
45354;SDS011;31091;48.758;9.150;2022-11-15T07:18:02;8.00;;;4.10;;
45354;SDS011;31091;48.758;9.150;2022-11-15T07:20:27;5.93;;;3.60;;
45354;SDS011;31091;48.758;9.150;2022-11-15T07:22:59;7.73;;;3.93;;
45354;SDS011;31091;48.758;9.150;2022-11-15T07:25:24;10.40;;;5.07;;
45354;SDS011;31091;48.758;9.150;2022-11-15T07:27:56;14.10;;;6.43;;
45354;SDS011;31091;48.758;9.150;2022-11-15T07:30:21;11.60;;;4.65;;
45354;SDS011;31091;48.758;9.150;2022-11-15T07:32:47;8.48;;;3.58;;
45354;SDS011;31091;48.758;9.150;2022-11-15T07:35:12;6.93;;;4.37;;
45354;SDS011;31091;48.758;9.150;2022-11-15T07:37:37;9.97;;;5.10;;
45354;SDS011;31091;48.758;9.150;2022-11-15T07:40:03;9.98;;;5.25;;
45354;SDS011;31091;48.758;9.150;2022-11-15T07:42:30;7.35;;;4.30;;
45354;SDS011;31091;48.758;9.150;2022-11-15T07:45:14;8.40;;;5.30;;
45354;SDS011;31091;48.758;9.150;2022-11-15T07:47:39;10.45;;;5.07;;
45354;SDS011;31091;48.758;9.150;2022-11-15T07:50:08;11.30;;;5.82;;
45354;SDS011;31091;48.758;9.150;2022-11-15T07:52:33;12.50;;;5.63;;
45354;SDS011;31091;48.758;9.150;2022-11-15T07:54:58;8.57;;;4.67;;
45354;SDS011;31091;48.758;9.150;2022-11-15T07:57:23;10.27;;;5.10;;
45354;SDS011;31091;48.758;9.150;2022-11-15T07:59:49;14.27;;;5.13;;
45354;SDS011;31091;48.758;9.150;2022-11-15T08:02:14;8.97;;;4.70;;
45354;SDS011;31091;48.758;9.150;2022-11-15T08:04:42;15.98;;;5.72;;
45354;SDS011;31091;48.758;9.150;2022-11-15T08:07:08;11.73;;;5.35;;
45354;SDS011;31091;48.758;9.150;2022-11-15T08:09:33;11.17;;;4.83;;
45354;SDS011;31091;48.758;9.150;2022-11-15T08:11:59;11.80;;;4.43;;
45354;SDS011;31091;48.758;9.150;2022-11-15T08:14:24;11.95;;;5.15;;
45354;SDS011;31091;48.758;9.150;2022-11-15T08:16:49;12.50;;;5.63;;
45354;SDS011;31091;48.758;9.150;2022-11-15T08:19:15;7.60;;;4.80;;
45354;SDS011;31091;48.758;9.150;2022-11-15T08:21:40;10.43;;;4.97;;
45354;SDS011;31091;48.758;9.150;2022-11-15T08:24:05;10.45;;;4.68;;
45354;SDS011;31091;48.758;9.150;2022-11-15T08:26:31;8.43;;;4.78;;
45354;SDS011;31091;48.758;9.150;2022-11-15T08:28:56;9.35;;;3.88;;
45354;SDS011;31091;48.758;9.150;2022-11-15T08:31:21;8.05;;;3.30;;
45354;SDS011;31091;48.758;9.150;2022-11-15T08:33:47;7.05;;;3.63;;
45354;SDS011;31091;48.758;9.150;2022-11-15T08:36:15;10.80;;;4.63;;
45354;SDS011;31091;48.758;9.150;2022-11-15T08:38:41;12.38;;;4.68;;
45354;SDS011;31091;48.758;9.150;2022-11-15T08:41:06;8.32;;;4.03;;
45354;SDS011;31091;48.758;9.150;2022-11-15T08:43:31;7.20;;;3.53;;
45354;SDS011;31091;48.758;9.150;2022-11-15T08:45:57;9.80;;;3.67;;
45354;SDS011;31091;48.758;9.150;2022-11-15T08:48:22;11.73;;;4.45;;
45354;SDS011;31091;48.758;9.150;2022-11-15T08:50:48;7.90;;;4.93;;
45354;SDS011;31091;48.758;9.150;2022-11-15T08:53:13;10.15;;;4.22;;
45354;SDS011;31091;48.758;9.150;2022-11-15T08:55:38;10.50;;;4.10;;
45354;SDS011;31091;48.758;9.150;2022-11-15T08:58:04;9.18;;;4.82;;
45354;SDS011;31091;48.758;9.150;2022-11-15T09:00:29;8.63;;;4.23;;
45354;SDS011;31091;48.758;9.150;2022-11-15T09:02:55;9.32;;;3.63;;
45354;SDS011;31091;48.758;9.150;2022-11-15T09:05:21;9.70;;;5.53;;
45354;SDS011;31091;48.758;9.150;2022-11-15T09:07:46;11.95;;;4.90;;
45354;SDS011;31091;48.758;9.150;2022-11-15T09:10:17;12.02;;;7.07;;
45354;SDS011;31091;48.758;9.150;2022-11-15T09:12:56;14.50;;;4.60;;
45354;SDS011;31091;48.758;9.150;2022-11-15T09:15:21;11.57;;;4.25;;
45354;SDS011;31091;48.758;9.150;2022-11-15T09:17:47;9.97;;;5.07;;
45354;SDS011;31091;48.758;9.150;2022-11-15T09:20:15;10.55;;;4.22;;
45354;SDS011;31091;48.758;9.150;2022-11-15T09:22:40;8.60;;;4.00;;
45354;SDS011;31091;48.758;9.150;2022-11-15T09:25:06;8.57;;;4.95;;
45354;SDS011;31091;48.758;9.150;2022-11-15T09:27:31;8.35;;;4.88;;
45354;SDS011;31091;48.758;9.150;2022-11-15T09:29:57;6.40;;;3.30;;
45354;SDS011;31091;48.758;9.150;2022-11-15T09:32:22;6.25;;;3.70;;
45354;SDS011;31091;48.758;9.150;2022-11-15T09:34:50;9.80;;;3.47;;
45354;SDS011;31091;48.758;9.150;2022-11-15T09:37:15;8.52;;;3.47;;
45354;SDS011;31091;48.758;9.150;2022-11-15T09:39:41;7.38;;;3.90;;
45354;SDS011;31091;48.758;9.150;2022-11-15T09:42:22;11.52;;;5.30;;
45354;SDS011;31091;48.758;9.150;2022-11-15T09:49:56;8.57;;;4.78;;
45354;SDS011;31091;48.758;9.150;2022-11-15T09:52:21;5.57;;;4.03;;
45354;SDS011;31091;48.758;9.150;2022-11-15T09:54:48;6.45;;;3.42;;
45354;SDS011;31091;48.758;9.150;2022-11-15T09:57:14;8.10;;;4.25;;
45354;SDS011;31091;48.758;9.150;2022-11-15T09:59:47;6.22;;;3.70;;
45354;SDS011;31091;48.758;9.150;2022-11-15T10:05:21;6.15;;;3.22;;
45354;SDS011;31091;48.758;9.150;2022-11-15T10:07:54;5.75;;;3.17;;
45354;SDS011;31091;48.758;9.150;2022-11-15T10:10:42;5.38;;;2.83;;
45354;SDS011;31091;48.758;9.150;2022-11-15T10:13:12;9.02;;;4.07;;
45354;SDS011;31091;48.758;9.150;2022-11-15T10:15:38;7.60;;;3.15;;
45354;SDS011;31091;48.758;9.150;2022-11-15T10:19:05;7.43;;;3.47;;
45354;SDS011;31091;48.758;9.150;2022-11-15T10:20:59;7.75;;;3.75;;
45354;SDS011;31091;48.758;9.150;2022-11-15T10:23:24;9.30;;;4.82;;
45354;SDS011;31091;48.758;9.150;2022-11-15T10:25:52;7.30;;;3.72;;
45354;SDS011;31091;48.758;9.150;2022-11-15T10:30:51;5.43;;;2.60;;
45354;SDS011;31091;48.758;9.150;2022-11-15T10:35:42;6.60;;;2.90;;
45354;SDS011;31091;48.758;9.150;2022-11-15T10:38:09;4.35;;;2.60;;
45354;SDS011;31091;48.758;9.150;2022-11-15T10:40:39;5.78;;;2.20;;
45354;SDS011;31091;48.758;9.150;2022-11-15T10:43:17;6.32;;;2.67;;
45354;SDS011;31091;48.758;9.150;2022-11-15T10:45:47;3.83;;;2.55;;
45354;SDS011;31091;48.758;9.150;2022-11-15T10:48:19;7.57;;;3.80;;
45354;SDS011;31091;48.758;9.150;2022-11-15T10:50:45;4.38;;;2.22;;
45354;SDS011;31091;48.758;9.150;2022-11-15T10:55:42;9.55;;;3.05;;
45354;SDS011;31091;48.758;9.150;2022-11-15T11:00:46;6.15;;;3.03;;
45354;SDS011;31091;48.758;9.150;2022-11-15T11:05:48;7.65;;;2.95;;
45354;SDS011;31091;48.758;9.150;2022-11-15T11:08:27;5.47;;;2.58;;
45354;SDS011;31091;48.758;9.150;2022-11-15T11:10:56;7.40;;;3.10;;
45354;SDS011;31091;48.758;9.150;2022-11-15T11:15:52;7.85;;;3.20;;
45354;SDS011;31091;48.758;9.150;2022-11-15T11:18:25;8.23;;;3.78;;
45354;SDS011;31091;48.758;9.150;2022-11-15T11:20:54;5.80;;;3.17;;
45354;SDS011;31091;48.758;9.150;2022-11-15T11:23:32;7.50;;;2.50;;
45354;SDS011;31091;48.758;9.150;2022-11-15T11:28:42;7.55;;;3.40;;
45354;SDS011;31091;48.758;9.150;2022-11-15T11:39:09;8.98;;;2.72;;
45354;SDS011;31091;48.758;9.150;2022-11-15T11:49:20;5.95;;;3.10;;
45354;SDS011;31091;48.758;9.150;2022-11-15T11:54:22;8.38;;;3.03;;
45354;SDS011;31091;48.758;9.150;2022-11-15T11:56:50;10.32;;;4.20;;
45354;SDS011;31091;48.758;9.150;2022-11-15T12:00:00;13.75;;;5.68;;
45354;SDS011;31091;48.758;9.150;2022-11-15T12:02:16;8.95;;;3.80;;
45354;SDS011;31091;48.758;9.150;2022-11-15T12:04:45;7.18;;;3.30;;
45354;SDS011;31091;48.758;9.150;2022-11-15T12:07:17;5.90;;;2.72;;
45354;SDS011;31091;48.758;9.150;2022-11-15T12:10:03;5.90;;;2.20;;
45354;SDS011;31091;48.758;9.150;2022-11-15T12:12:41;9.00;;;3.08;;
45354;SDS011;31091;48.758;9.150;2022-11-15T12:17:34;7.43;;;2.45;;
45354;SDS011;31091;48.758;9.150;2022-11-15T12:20:05;3.50;;;1.95;;
45354;SDS011;31091;48.758;9.150;2022-11-15T12:22:42;6.13;;;2.97;;
45354;SDS011;31091;48.758;9.150;2022-11-15T12:25:14;5.13;;;3.20;;
45354;SDS011;31091;48.758;9.150;2022-11-15T12:27:46;6.95;;;3.42;;
45354;SDS011;31091;48.758;9.150;2022-11-15T12:30:14;6.00;;;2.40;;
45354;SDS011;31091;48.758;9.150;2022-11-15T12:32:40;9.20;;;4.15;;
45354;SDS011;31091;48.758;9.150;2022-11-15T12:35:25;10.70;;;3.72;;
45354;SDS011;31091;48.758;9.150;2022-11-15T12:37:52;9.43;;;3.60;;
45354;SDS011;31091;48.758;9.150;2022-11-15T12:45:27;9.80;;;3.50;;
45354;SDS011;31091;48.758;9.150;2022-11-15T12:47:53;7.00;;;3.05;;
45354;SDS011;31091;48.758;9.150;2022-11-15T12:55:50;7.72;;;3.75;;
45354;SDS011;31091;48.758;9.150;2022-11-15T12:58:42;11.68;;;3.63;;
45354;SDS011;31091;48.758;9.150;2022-11-15T13:01:08;10.07;;;3.22;;
45354;SDS011;31091;48.758;9.150;2022-11-15T13:03:34;8.15;;;3.70;;
45354;SDS011;31091;48.758;9.150;2022-11-15T13:06:00;7.68;;;3.40;;
45354;SDS011;31091;48.758;9.150;2022-11-15T13:17:01;4.65;;;2.42;;
45354;SDS011;31091;48.758;9.150;2022-11-15T13:19:27;7.53;;;2.80;;
45354;SDS011;31091;48.758;9.150;2022-11-15T13:21:52;4.93;;;2.83;;
45354;SDS011;31091;48.758;9.150;2022-11-15T13:24:37;6.43;;;3.30;;
45354;SDS011;31091;48.758;9.150;2022-11-15T13:27:09;6.15;;;2.85;;
45354;SDS011;31091;48.758;9.150;2022-11-15T13:29:35;8.38;;;3.15;;
45354;SDS011;31091;48.758;9.150;2022-11-15T13:32:00;8.47;;;3.53;;
45354;SDS011;31091;48.758;9.150;2022-11-15T13:34:27;9.52;;;3.35;;
45354;SDS011;31091;48.758;9.150;2022-11-15T13:36:53;5.25;;;2.45;;
45354;SDS011;31091;48.758;9.150;2022-11-15T13:42:19;6.00;;;2.53;;
45354;SDS011;31091;48.758;9.150;2022-11-15T13:44:58;5.80;;;2.97;;
45354;SDS011;31091;48.758;9.150;2022-11-15T13:47:27;6.13;;;3.15;;
45354;SDS011;31091;48.758;9.150;2022-11-15T13:49:53;5.95;;;2.78;;
45354;SDS011;31091;48.758;9.150;2022-11-15T13:52:21;7.20;;;2.33;;
45354;SDS011;31091;48.758;9.150;2022-11-15T13:54:56;5.55;;;2.90;;
45354;SDS011;31091;48.758;9.150;2022-11-15T13:57:24;8.23;;;2.53;;
45354;SDS011;31091;48.758;9.150;2022-11-15T14:00:04;5.35;;;2.33;;
45354;SDS011;31091;48.758;9.150;2022-11-15T14:02:31;6.93;;;2.88;;
45354;SDS011;31091;48.758;9.150;2022-11-15T14:05:02;5.80;;;3.35;;
45354;SDS011;31091;48.758;9.150;2022-11-15T14:07:28;6.07;;;2.97;;
45354;SDS011;31091;48.758;9.150;2022-11-15T14:09:53;7.85;;;3.28;;
45354;SDS011;31091;48.758;9.150;2022-11-15T14:12:22;5.53;;;3.15;;
45354;SDS011;31091;48.758;9.150;2022-11-15T14:14:48;4.70;;;2.75;;
45354;SDS011;31091;48.758;9.150;2022-11-15T14:17:19;9.30;;;3.15;;
45354;SDS011;31091;48.758;9.150;2022-11-15T14:19:45;9.60;;;3.63;;
45354;SDS011;31091;48.758;9.150;2022-11-15T14:24:35;10.80;;;3.28;;
45354;SDS011;31091;48.758;9.150;2022-11-15T14:27:20;7.30;;;3.25;;
45354;SDS011;31091;48.758;9.150;2022-11-15T14:29:47;7.35;;;3.70;;
45354;SDS011;31091;48.758;9.150;2022-11-15T14:32:14;7.20;;;3.40;;
45354;SDS011;31091;48.758;9.150;2022-11-15T14:34:40;6.82;;;3.30;;
45354;SDS011;31091;48.758;9.150;2022-11-15T14:37:19;7.30;;;3.40;;
45354;SDS011;31091;48.758;9.150;2022-11-15T14:39:45;7.93;;;3.60;;
45354;SDS011;31091;48.758;9.150;2022-11-15T14:42:10;8.07;;;3.42;;
45354;SDS011;31091;48.758;9.150;2022-11-15T14:44:36;6.20;;;2.83;;
45354;SDS011;31091;48.758;9.150;2022-11-15T14:47:01;11.13;;;4.30;;
45354;SDS011;31091;48.758;9.150;2022-11-15T14:49:26;6.47;;;3.00;;
45354;SDS011;31091;48.758;9.150;2022-11-15T14:51:51;7.05;;;3.72;;
45354;SDS011;31091;48.758;9.150;2022-11-15T14:54:16;7.45;;;3.78;;
45354;SDS011;31091;48.758;9.150;2022-11-15T14:56:42;11.23;;;4.03;;
45354;SDS011;31091;48.758;9.150;2022-11-15T14:59:07;6.38;;;3.50;;
45354;SDS011;31091;48.758;9.150;2022-11-15T15:01:33;7.57;;;3.53;;
45354;SDS011;31091;48.758;9.150;2022-11-15T15:03:58;6.93;;;3.07;;
45354;SDS011;31091;48.758;9.150;2022-11-15T15:06:23;9.48;;;4.15;;
45354;SDS011;31091;48.758;9.150;2022-11-15T15:08:49;9.23;;;3.97;;
45354;SDS011;31091;48.758;9.150;2022-11-15T15:11:22;8.55;;;3.78;;
45354;SDS011;31091;48.758;9.150;2022-11-15T15:13:48;10.77;;;4.30;;
45354;SDS011;31091;48.758;9.150;2022-11-15T15:16:13;11.77;;;4.85;;
45354;SDS011;31091;48.758;9.150;2022-11-15T15:18:39;9.90;;;4.63;;
45354;SDS011;31091;48.758;9.150;2022-11-15T15:21:04;8.10;;;4.17;;
45354;SDS011;31091;48.758;9.150;2022-11-15T15:23:38;9.23;;;3.50;;
45354;SDS011;31091;48.758;9.150;2022-11-15T15:26:03;6.60;;;3.13;;
45354;SDS011;31091;48.758;9.150;2022-11-15T15:28:30;9.82;;;3.78;;
45354;SDS011;31091;48.758;9.150;2022-11-15T15:30:55;7.45;;;3.50;;
45354;SDS011;31091;48.758;9.150;2022-11-15T15:33:20;9.90;;;4.00;;
45354;SDS011;31091;48.758;9.150;2022-11-15T15:35:45;6.13;;;3.40;;
45354;SDS011;31091;48.758;9.150;2022-11-15T15:38:11;9.30;;;3.67;;
45354;SDS011;31091;48.758;9.150;2022-11-15T15:40:37;13.82;;;4.60;;
45354;SDS011;31091;48.758;9.150;2022-11-15T15:43:02;10.83;;;3.80;;
45354;SDS011;31091;48.758;9.150;2022-11-15T15:45:27;11.00;;;4.07;;
45354;SDS011;31091;48.758;9.150;2022-11-15T15:47:53;8.30;;;4.43;;
45354;SDS011;31091;48.758;9.150;2022-11-15T15:52:47;9.80;;;3.45;;
45354;SDS011;31091;48.758;9.150;2022-11-15T15:55:12;6.18;;;3.75;;
45354;SDS011;31091;48.758;9.150;2022-11-15T15:57:37;9.75;;;4.13;;
45354;SDS011;31091;48.758;9.150;2022-11-15T16:00:14;14.90;;;4.75;;
45354;SDS011;31091;48.758;9.150;2022-11-15T16:02:40;10.50;;;4.28;;
45354;SDS011;31091;48.758;9.150;2022-11-15T16:05:05;8.23;;;4.15;;
45354;SDS011;31091;48.758;9.150;2022-11-15T16:07:31;13.50;;;3.67;;
45354;SDS011;31091;48.758;9.150;2022-11-15T16:09:56;12.82;;;4.18;;
45354;SDS011;31091;48.758;9.150;2022-11-15T16:12:24;9.27;;;4.30;;
45354;SDS011;31091;48.758;9.150;2022-11-15T16:14:50;8.25;;;3.65;;
45354;SDS011;31091;48.758;9.150;2022-11-15T16:17:16;8.00;;;3.93;;
45354;SDS011;31091;48.758;9.150;2022-11-15T16:19:42;8.35;;;4.43;;
45354;SDS011;31091;48.758;9.150;2022-11-15T16:22:07;9.60;;;4.10;;
45354;SDS011;31091;48.758;9.150;2022-11-15T16:24:32;6.40;;;4.10;;
45354;SDS011;31091;48.758;9.150;2022-11-15T16:26:58;16.52;;;4.57;;
45354;SDS011;31091;48.758;9.150;2022-11-15T16:29:23;13.50;;;3.80;;
45354;SDS011;31091;48.758;9.150;2022-11-15T16:31:48;11.75;;;4.15;;